LFML 240100Z AUTO 34005KT CAVOK 20/10 Q1016 NOSIG

ElémentsDécodage
LFML Station météo située sur l'aérodrome de MARSEILLE PROVENCE
240100Z émis le 24 du mois à 01h00 UTC
AUTO Bulletin édité par un automate
34005KT vent du 340°, 05 noeuds
CAVOK Ceiling And Visibility OK
- Visibilité de 10 Km ou plus
- Pas de nuage au-dessous de 1500m ou au-dessous de l'altitude minimale du secteur la plus élevée (si>1500m) et absence de CB
- pas de temps présent significatif
20/10 température 20°C, point de rosée 10°C
 soit une humidité relative de 53%
Q1016 la pression au niveau de la mer (QNH) est de 1016 hPa
NOSIG Pas de changement significatif prévu au cours des deux heures suivant l'heure de l'observation